Terminal Aerodrome Forecast
Issued by NWS

Home | Current Version | Previous Version | Text Only | Print | Product List | Glossary On
Versions: 1 2 3 4 5 6 7 8 9 10 11 12 13 14 15 16
000
FTAK31 PAFA 262336
TAFAOM
TAF
PAOM 262336Z 2700/2724 11015KT P6SM VCSH SCT019 OVC040
     FM270800 08006KT 6SM -SHRA BR BKN020 OVC040
     FM271400 10008KT 6SM -SHRA SCT007 BKN015 OVC040=

USA.gov is the U.S. government's official web portal to all federal, state and local government web resources and services.